sensor_id;sensor_type;location;lat;lon;timestamp;pressure;altitude;pressure_sealevel;temperature;humidity
41706;BME280;27385;51.096;17.190;2023-01-10T00:00:56;99444.41;;;4.96;94.41
41706;BME280;27385;51.096;17.190;2023-01-10T00:03:29;99444.16;;;4.96;94.43
41706;BME280;27385;51.096;17.190;2023-01-10T00:06:00;99445.38;;;4.97;94.41
41706;BME280;27385;51.096;17.190;2023-01-10T00:08:31;99447.36;;;4.97;94.50
41706;BME280;27385;51.096;17.190;2023-01-10T00:11:02;99447.70;;;5.00;94.60
41706;BME280;27385;51.096;17.190;2023-01-10T00:13:55;99449.36;;;5.02;94.53
41706;BME280;27385;51.096;17.190;2023-01-10T00:16:26;99451.20;;;5.04;94.63
41706;BME280;27385;51.096;17.190;2023-01-10T00:18:57;99450.14;;;5.05;94.64
41706;BME280;27385;51.096;17.190;2023-01-10T00:21:27;99455.99;;;5.06;94.63
41706;BME280;27385;51.096;17.190;2023-01-10T00:24:00;99453.76;;;5.09;94.63
41706;BME280;27385;51.096;17.190;2023-01-10T00:26:44;99457.23;;;5.10;94.60
41706;BME280;27385;51.096;17.190;2023-01-10T00:29:18;99452.37;;;5.11;94.58
41706;BME280;27385;51.096;17.190;2023-01-10T00:31:49;99461.29;;;5.11;94.39
41706;BME280;27385;51.096;17.190;2023-01-10T00:34:20;99463.54;;;5.13;94.44
41706;BME280;27385;51.096;17.190;2023-01-10T00:36:51;99464.73;;;5.14;94.47
41706;BME280;27385;51.096;17.190;2023-01-10T00:39:22;99466.22;;;5.14;94.43
41706;BME280;27385;51.096;17.190;2023-01-10T00:41:55;99467.63;;;5.15;94.46
41706;BME280;27385;51.096;17.190;2023-01-10T00:44:44;99468.14;;;5.14;94.37
41706;BME280;27385;51.096;17.190;2023-01-10T00:47:15;99473.41;;;5.13;94.42
41706;BME280;27385;51.096;17.190;2023-01-10T00:49:47;99476.70;;;5.12;94.36
41706;BME280;27385;51.096;17.190;2023-01-10T00:52:18;99483.67;;;5.10;94.20
41706;BME280;27385;51.096;17.190;2023-01-10T00:54:49;99483.85;;;5.07;94.24
41706;BME280;27385;51.096;17.190;2023-01-10T00:57:19;99486.52;;;5.05;94.23
41706;BME280;27385;51.096;17.190;2023-01-10T00:59:50;99490.18;;;5.03;94.18
41706;BME280;27385;51.096;17.190;2023-01-10T01:02:22;99491.23;;;5.03;94.23
41706;BME280;27385;51.096;17.190;2023-01-10T01:04:53;99495.20;;;5.04;94.34
41706;BME280;27385;51.096;17.190;2023-01-10T01:07:24;99498.14;;;5.05;94.38
41706;BME280;27385;51.096;17.190;2023-01-10T01:09:54;99498.99;;;5.06;94.30
41706;BME280;27385;51.096;17.190;2023-01-10T01:12:43;99505.75;;;5.05;94.29
41706;BME280;27385;51.096;17.190;2023-01-10T01:15:14;99509.29;;;5.03;94.29
41706;BME280;27385;51.096;17.190;2023-01-10T01:17:45;99510.10;;;5.03;94.24
41706;BME280;27385;51.096;17.190;2023-01-10T01:20:17;99512.21;;;5.03;94.30
41706;BME280;27385;51.096;17.190;2023-01-10T01:22:49;99518.98;;;5.03;94.30
41706;BME280;27385;51.096;17.190;2023-01-10T01:25:20;99521.26;;;5.01;94.26
41706;BME280;27385;51.096;17.190;2023-01-10T01:27:51;99521.86;;;5.00;94.32
41706;BME280;27385;51.096;17.190;2023-01-10T01:30:23;99521.46;;;4.98;94.17
41706;BME280;27385;51.096;17.190;2023-01-10T01:32:54;99522.57;;;4.96;94.27
41706;BME280;27385;51.096;17.190;2023-01-10T01:35:25;99524.35;;;4.95;94.32
41706;BME280;27385;51.096;17.190;2023-01-10T01:37:56;99524.86;;;4.94;94.30
41706;BME280;27385;51.096;17.190;2023-01-10T01:40:27;99523.20;;;4.94;94.37
41706;BME280;27385;51.096;17.190;2023-01-10T01:42:58;99525.50;;;4.92;94.16
41706;BME280;27385;51.096;17.190;2023-01-10T01:45:38;99524.70;;;4.82;93.89
41706;BME280;27385;51.096;17.190;2023-01-10T01:48:26;99528.53;;;4.74;94.02
41706;BME280;27385;51.096;17.190;2023-01-10T01:51:02;99528.29;;;4.68;94.18
41706;BME280;27385;51.096;17.190;2023-01-10T01:53:41;99531.13;;;4.67;94.42
41706;BME280;27385;51.096;17.190;2023-01-10T01:56:17;99527.22;;;4.66;94.37
41706;BME280;27385;51.096;17.190;2023-01-10T01:58:53;99534.01;;;4.66;94.43
41706;BME280;27385;51.096;17.190;2023-01-10T02:01:29;99535.85;;;4.67;94.51
41706;BME280;27385;51.096;17.190;2023-01-10T02:04:05;99534.59;;;4.68;94.55
41706;BME280;27385;51.096;17.190;2023-01-10T02:06:38;99537.39;;;4.69;94.48
41706;BME280;27385;51.096;17.190;2023-01-10T02:09:14;99542.07;;;4.71;94.60
41706;BME280;27385;51.096;17.190;2023-01-10T02:11:47;99542.40;;;4.72;94.64
41706;BME280;27385;51.096;17.190;2023-01-10T02:14:19;99543.09;;;4.73;94.71
41706;BME280;27385;51.096;17.190;2023-01-10T02:16:51;99548.89;;;4.74;94.59
41706;BME280;27385;51.096;17.190;2023-01-10T02:19:27;99551.15;;;4.75;94.55
41706;BME280;27385;51.096;17.190;2023-01-10T02:22:26;99554.13;;;4.76;94.57
41706;BME280;27385;51.096;17.190;2023-01-10T02:25:28;99553.72;;;4.76;94.54
41706;BME280;27385;51.096;17.190;2023-01-10T02:31:37;99558.55;;;4.75;94.47
41706;BME280;27385;51.096;17.190;2023-01-10T02:34:14;99563.73;;;4.76;94.51
41706;BME280;27385;51.096;17.190;2023-01-10T02:36:55;99566.44;;;4.76;94.46
41706;BME280;27385;51.096;17.190;2023-01-10T02:39:33;99573.55;;;4.76;94.43
41706;BME280;27385;51.096;17.190;2023-01-10T02:42:08;99577.89;;;4.76;94.46
41706;BME280;27385;51.096;17.190;2023-01-10T02:44:47;99578.98;;;4.76;94.40
41706;BME280;27385;51.096;17.190;2023-01-10T02:47:21;99585.53;;;4.77;94.35
41706;BME280;27385;51.096;17.190;2023-01-10T02:49:52;99592.48;;;4.77;94.34
41706;BME280;27385;51.096;17.190;2023-01-10T02:52:26;99598.48;;;4.77;94.32
41706;BME280;27385;51.096;17.190;2023-01-10T02:55:02;99607.53;;;4.78;94.31
41706;BME280;27385;51.096;17.190;2023-01-10T02:57:46;99606.63;;;4.78;94.35
41706;BME280;27385;51.096;17.190;2023-01-10T03:00:33;99613.09;;;4.79;94.34
41706;BME280;27385;51.096;17.190;2023-01-10T03:03:16;99613.32;;;4.79;94.22
41706;BME280;27385;51.096;17.190;2023-01-10T03:06:05;99620.36;;;4.79;94.24
41706;BME280;27385;51.096;17.190;2023-01-10T03:08:45;99628.09;;;4.79;94.13
41706;BME280;27385;51.096;17.190;2023-01-10T03:11:17;99628.89;;;4.79;94.18
41706;BME280;27385;51.096;17.190;2023-01-10T03:14:12;99634.03;;;4.79;94.10
41706;BME280;27385;51.096;17.190;2023-01-10T03:16:48;99643.90;;;4.79;94.08
41706;BME280;27385;51.096;17.190;2023-01-10T03:19:23;99644.94;;;4.79;94.04
41706;BME280;27385;51.096;17.190;2023-01-10T03:21:56;99652.60;;;4.79;94.10
41706;BME280;27385;51.096;17.190;2023-01-10T03:24:32;99654.52;;;4.78;94.08
41706;BME280;27385;51.096;17.190;2023-01-10T03:27:08;99661.23;;;4.78;94.08
41706;BME280;27385;51.096;17.190;2023-01-10T03:29:45;99666.70;;;4.78;94.08
41706;BME280;27385;51.096;17.190;2023-01-10T03:32:20;99671.84;;;4.78;94.05
41706;BME280;27385;51.096;17.190;2023-01-10T03:34:53;99672.34;;;4.77;94.10
41706;BME280;27385;51.096;17.190;2023-01-10T03:37:29;99681.33;;;4.78;94.17
41706;BME280;27385;51.096;17.190;2023-01-10T03:40:12;99683.08;;;4.77;94.17
41706;BME280;27385;51.096;17.190;2023-01-10T03:42:52;99691.93;;;4.77;94.17
41706;BME280;27385;51.096;17.190;2023-01-10T03:45:54;99691.62;;;4.77;94.13
41706;BME280;27385;51.096;17.190;2023-01-10T03:48:30;99688.70;;;4.77;94.23
41706;BME280;27385;51.096;17.190;2023-01-10T03:51:06;99692.39;;;4.77;94.23
41706;BME280;27385;51.096;17.190;2023-01-10T03:53:39;99690.02;;;4.77;94.25
41706;BME280;27385;51.096;17.190;2023-01-10T03:56:13;99693.71;;;4.78;94.29
41706;BME280;27385;51.096;17.190;2023-01-10T03:58:44;99702.05;;;4.79;94.30
41706;BME280;27385;51.096;17.190;2023-01-10T04:01:15;99709.39;;;4.80;94.32
41706;BME280;27385;51.096;17.190;2023-01-10T04:03:46;99713.06;;;4.81;94.34
41706;BME280;27385;51.096;17.190;2023-01-10T04:06:16;99711.51;;;4.82;94.36
41706;BME280;27385;51.096;17.190;2023-01-10T04:08:48;99720.03;;;4.84;94.39
41706;BME280;27385;51.096;17.190;2023-01-10T04:11:19;99717.66;;;4.86;94.32
41706;BME280;27385;51.096;17.190;2023-01-10T04:13:50;99719.06;;;4.87;94.28
41706;BME280;27385;51.096;17.190;2023-01-10T04:16:20;99721.70;;;4.88;94.18
41706;BME280;27385;51.096;17.190;2023-01-10T04:18:51;99724.13;;;4.88;94.15
41706;BME280;27385;51.096;17.190;2023-01-10T04:21:22;99726.79;;;4.89;94.22
41706;BME280;27385;51.096;17.190;2023-01-10T04:23:53;99735.09;;;4.90;94.17
41706;BME280;27385;51.096;17.190;2023-01-10T04:26:24;99741.56;;;4.89;94.12
41706;BME280;27385;51.096;17.190;2023-01-10T04:28:55;99749.95;;;4.89;94.13
41706;BME280;27385;51.096;17.190;2023-01-10T04:31:26;99755.80;;;4.89;94.18
41706;BME280;27385;51.096;17.190;2023-01-10T04:33:57;99760.92;;;4.89;94.12
41706;BME280;27385;51.096;17.190;2023-01-10T04:36:28;99764.64;;;4.89;94.17
41706;BME280;27385;51.096;17.190;2023-01-10T04:38:59;99769.34;;;4.88;94.14
41706;BME280;27385;51.096;17.190;2023-01-10T04:41:30;99777.35;;;4.87;94.21
41706;BME280;27385;51.096;17.190;2023-01-10T04:44:01;99782.91;;;4.87;94.21
41706;BME280;27385;51.096;17.190;2023-01-10T04:46:32;99790.64;;;4.85;94.18
41706;BME280;27385;51.096;17.190;2023-01-10T04:49:03;99795.38;;;4.83;94.15
41706;BME280;27385;51.096;17.190;2023-01-10T04:51:34;99802.36;;;4.82;94.22
41706;BME280;27385;51.096;17.190;2023-01-10T04:54:05;99807.24;;;4.81;94.26
41706;BME280;27385;51.096;17.190;2023-01-10T04:56:36;99811.39;;;4.80;94.29
41706;BME280;27385;51.096;17.190;2023-01-10T04:59:10;99814.23;;;4.79;94.34
41706;BME280;27385;51.096;17.190;2023-01-10T05:01:40;99819.16;;;4.78;94.34
41706;BME280;27385;51.096;17.190;2023-01-10T05:04:12;99821.75;;;4.77;94.34
41706;BME280;27385;51.096;17.190;2023-01-10T05:06:43;99823.31;;;4.75;94.44
41706;BME280;27385;51.096;17.190;2023-01-10T05:09:14;99826.47;;;4.76;94.48
41706;BME280;27385;51.096;17.190;2023-01-10T05:11:45;99827.36;;;4.75;94.55
41706;BME280;27385;51.096;17.190;2023-01-10T05:14:16;99825.49;;;4.74;94.54
41706;BME280;27385;51.096;17.190;2023-01-10T05:16:47;99830.12;;;4.73;94.61
41706;BME280;27385;51.096;17.190;2023-01-10T05:19:18;99832.90;;;4.72;94.59
41706;BME280;27385;51.096;17.190;2023-01-10T05:21:49;99840.02;;;4.72;94.64
41706;BME280;27385;51.096;17.190;2023-01-10T05:24:21;99846.90;;;4.72;94.62
41706;BME280;27385;51.096;17.190;2023-01-10T05:26:52;99847.94;;;4.72;94.67
41706;BME280;27385;51.096;17.190;2023-01-10T05:29:23;99856.66;;;4.71;94.64
41706;BME280;27385;51.096;17.190;2023-01-10T05:31:55;99858.32;;;4.71;94.71
41706;BME280;27385;51.096;17.190;2023-01-10T05:34:26;99866.22;;;4.71;94.78
41706;BME280;27385;51.096;17.190;2023-01-10T05:36:57;99868.98;;;4.71;94.74
41706;BME280;27385;51.096;17.190;2023-01-10T05:39:28;99877.16;;;4.72;94.85
41706;BME280;27385;51.096;17.190;2023-01-10T05:41:59;99881.09;;;4.73;94.88
41706;BME280;27385;51.096;17.190;2023-01-10T05:44:30;99878.16;;;4.73;94.96
41706;BME280;27385;51.096;17.190;2023-01-10T05:47:01;99880.28;;;4.73;94.98
41706;BME280;27385;51.096;17.190;2023-01-10T05:49:32;99886.33;;;4.74;95.05
41706;BME280;27385;51.096;17.190;2023-01-10T05:52:03;99893.70;;;4.73;95.14
41706;BME280;27385;51.096;17.190;2023-01-10T05:54:34;99898.84;;;4.73;95.15
41706;BME280;27385;51.096;17.190;2023-01-10T05:57:05;99902.34;;;4.73;95.20
41706;BME280;27385;51.096;17.190;2023-01-10T05:59:36;99910.57;;;4.72;95.24
41706;BME280;27385;51.096;17.190;2023-01-10T06:02:07;99911.21;;;4.72;95.30
41706;BME280;27385;51.096;17.190;2023-01-10T06:04:38;99917.12;;;4.73;95.38
41706;BME280;27385;51.096;17.190;2023-01-10T06:07:09;99919.15;;;4.73;95.26
41706;BME280;27385;51.096;17.190;2023-01-10T06:09:41;99920.16;;;4.73;95.29
41706;BME280;27385;51.096;17.190;2023-01-10T06:12:12;99926.48;;;4.73;95.29
41706;BME280;27385;51.096;17.190;2023-01-10T06:14:43;99929.61;;;4.72;95.21
41706;BME280;27385;51.096;17.190;2023-01-10T06:17:14;99933.44;;;4.71;95.30
41706;BME280;27385;51.096;17.190;2023-01-10T06:19:44;99940.12;;;4.70;95.32
41706;BME280;27385;51.096;17.190;2023-01-10T06:22:15;99943.00;;;4.69;95.29
41706;BME280;27385;51.096;17.190;2023-01-10T06:24:46;99950.83;;;4.68;95.26
41706;BME280;27385;51.096;17.190;2023-01-10T06:27:17;99958.20;;;4.68;95.29
41706;BME280;27385;51.096;17.190;2023-01-10T06:29:48;99959.66;;;4.65;95.26
41706;BME280;27385;51.096;17.190;2023-01-10T06:32:20;99966.21;;;4.64;95.34
41706;BME280;27385;51.096;17.190;2023-01-10T06:34:51;99970.09;;;4.64;95.32
41706;BME280;27385;51.096;17.190;2023-01-10T06:37:22;99974.00;;;4.65;95.25
41706;BME280;27385;51.096;17.190;2023-01-10T06:39:53;99979.00;;;4.65;95.34
41706;BME280;27385;51.096;17.190;2023-01-10T06:42:24;99988.34;;;4.64;95.32
41706;BME280;27385;51.096;17.190;2023-01-10T06:44:55;99995.36;;;4.65;95.34
41706;BME280;27385;51.096;17.190;2023-01-10T06:47:27;100002.38;;;4.65;95.34
41706;BME280;27385;51.096;17.190;2023-01-10T06:49:58;100008.98;;;4.66;95.40
41706;BME280;27385;51.096;17.190;2023-01-10T06:52:29;100014.98;;;4.68;95.32
41706;BME280;27385;51.096;17.190;2023-01-10T06:55:00;100018.81;;;4.70;95.31
41706;BME280;27385;51.096;17.190;2023-01-10T06:57:31;100029.16;;;4.70;95.31
41706;BME280;27385;51.096;17.190;2023-01-10T07:00:05;100033.40;;;4.70;95.31
41706;BME280;27385;51.096;17.190;2023-01-10T07:02:37;100036.79;;;4.71;95.30
41706;BME280;27385;51.096;17.190;2023-01-10T07:05:09;100040.07;;;4.70;95.28
41706;BME280;27385;51.096;17.190;2023-01-10T07:07:40;100044.92;;;4.69;95.33
41706;BME280;27385;51.096;17.190;2023-01-10T07:10:12;100049.82;;;4.68;95.31
41706;BME280;27385;51.096;17.190;2023-01-10T07:12:44;100052.98;;;4.68;95.34
41706;BME280;27385;51.096;17.190;2023-01-10T07:15:15;100063.65;;;4.68;95.43
41706;BME280;27385;51.096;17.190;2023-01-10T07:17:47;100065.16;;;4.68;95.51
41706;BME280;27385;51.096;17.190;2023-01-10T07:20:19;100066.86;;;4.67;95.56
41706;BME280;27385;51.096;17.190;2023-01-10T07:22:54;100064.80;;;4.67;95.56
41706;BME280;27385;51.096;17.190;2023-01-10T07:25:27;100073.77;;;4.66;95.58
41706;BME280;27385;51.096;17.190;2023-01-10T07:27:58;100074.10;;;4.65;95.55
41706;BME280;27385;51.096;17.190;2023-01-10T07:30:29;100076.42;;;4.64;95.64
41706;BME280;27385;51.096;17.190;2023-01-10T07:33:00;100083.63;;;4.64;95.70
41706;BME280;27385;51.096;17.190;2023-01-10T07:35:32;100084.17;;;4.64;95.70
41706;BME280;27385;51.096;17.190;2023-01-10T07:38:03;100090.33;;;4.64;95.76
41706;BME280;27385;51.096;17.190;2023-01-10T07:40:34;100092.33;;;4.64;95.82
41706;BME280;27385;51.096;17.190;2023-01-10T07:43:05;100097.70;;;4.64;95.79
41706;BME280;27385;51.096;17.190;2023-01-10T07:45:36;100105.54;;;4.63;95.87
41706;BME280;27385;51.096;17.190;2023-01-10T07:48:07;100112.19;;;4.63;95.93
41706;BME280;27385;51.096;17.190;2023-01-10T07:50:38;100114.34;;;4.62;96.09
41706;BME280;27385;51.096;17.190;2023-01-10T07:53:10;100118.53;;;4.62;96.23
41706;BME280;27385;51.096;17.190;2023-01-10T07:55:40;100118.52;;;4.62;96.10
41706;BME280;27385;51.096;17.190;2023-01-10T07:58:14;100123.09;;;4.62;96.23
41706;BME280;27385;51.096;17.190;2023-01-10T08:00:45;100123.72;;;4.63;96.20
41706;BME280;27385;51.096;17.190;2023-01-10T08:03:18;100128.02;;;4.64;96.25
41706;BME280;27385;51.096;17.190;2023-01-10T08:05:55;100133.93;;;4.64;96.22
41706;BME280;27385;51.096;17.190;2023-01-10T08:08:26;100137.61;;;4.66;96.25
41706;BME280;27385;51.096;17.190;2023-01-10T08:10:58;100139.21;;;4.67;96.34
41706;BME280;27385;51.096;17.190;2023-01-10T08:13:31;100150.50;;;4.67;96.37
41706;BME280;27385;51.096;17.190;2023-01-10T08:16:05;100157.38;;;4.68;96.45
41706;BME280;27385;51.096;17.190;2023-01-10T08:18:36;100160.27;;;4.69;96.57
41706;BME280;27385;51.096;17.190;2023-01-10T08:21:10;100162.84;;;4.70;96.54
41706;BME280;27385;51.096;17.190;2023-01-10T08:23:42;100165.63;;;4.71;96.52
41706;BME280;27385;51.096;17.190;2023-01-10T08:26:12;100169.46;;;4.73;96.53
41706;BME280;27385;51.096;17.190;2023-01-10T08:28:43;100176.60;;;4.74;96.42
41706;BME280;27385;51.096;17.190;2023-01-10T08:31:14;100177.63;;;4.74;96.53
41706;BME280;27385;51.096;17.190;2023-01-10T08:33:45;100179.76;;;4.75;96.52
41706;BME280;27385;51.096;17.190;2023-01-10T08:36:17;100184.17;;;4.75;96.53
41706;BME280;27385;51.096;17.190;2023-01-10T08:38:49;100176.02;;;4.75;96.63
41706;BME280;27385;51.096;17.190;2023-01-10T08:41:20;100177.45;;;4.75;96.67
41706;BME280;27385;51.096;17.190;2023-01-10T08:43:51;100178.73;;;4.74;96.85
41706;BME280;27385;51.096;17.190;2023-01-10T08:46:22;100178.10;;;4.75;96.77
41706;BME280;27385;51.096;17.190;2023-01-10T08:48:54;100180.28;;;4.75;96.89
41706;BME280;27385;51.096;17.190;2023-01-10T08:51:25;100187.36;;;4.76;96.84
41706;BME280;27385;51.096;17.190;2023-01-10T08:53:56;100188.48;;;4.78;96.86
41706;BME280;27385;51.096;17.190;2023-01-10T08:56:27;100193.36;;;4.80;96.93
41706;BME280;27385;51.096;17.190;2023-01-10T08:58:58;100195.91;;;4.81;96.87
41706;BME280;27385;51.096;17.190;2023-01-10T09:01:29;100198.48;;;4.83;96.87
41706;BME280;27385;51.096;17.190;2023-01-10T09:04:00;100205.02;;;4.84;96.89
41706;BME280;27385;51.096;17.190;2023-01-10T09:06:31;100211.20;;;4.85;96.80
41706;BME280;27385;51.096;17.190;2023-01-10T09:09:02;100211.96;;;4.86;96.85
41706;BME280;27385;51.096;17.190;2023-01-10T09:11:33;100212.32;;;4.88;96.78
41706;BME280;27385;51.096;17.190;2023-01-10T09:14:04;100217.32;;;4.89;96.79
41706;BME280;27385;51.096;17.190;2023-01-10T09:16:36;100220.20;;;4.91;96.78
41706;BME280;27385;51.096;17.190;2023-01-10T09:19:07;100223.17;;;4.92;96.69
41706;BME280;27385;51.096;17.190;2023-01-10T09:21:38;100232.27;;;4.94;96.81
41706;BME280;27385;51.096;17.190;2023-01-10T09:24:09;100235.30;;;4.96;96.92
41706;BME280;27385;51.096;17.190;2023-01-10T09:26:41;100239.35;;;4.98;96.83
41706;BME280;27385;51.096;17.190;2023-01-10T09:29:13;100242.91;;;5.00;96.71
41706;BME280;27385;51.096;17.190;2023-01-10T09:31:44;100245.55;;;5.03;96.74
41706;BME280;27385;51.096;17.190;2023-01-10T09:34:15;100247.38;;;5.05;96.58
41706;BME280;27385;51.096;17.190;2023-01-10T09:36:46;100247.46;;;5.07;96.48
41706;BME280;27385;51.096;17.190;2023-01-10T09:39:18;100254.33;;;5.10;96.55
41706;BME280;27385;51.096;17.190;2023-01-10T09:42:09;100257.36;;;5.12;96.36
41706;BME280;27385;51.096;17.190;2023-01-10T09:44:50;100264.95;;;5.14;96.35
41706;BME280;27385;51.096;17.190;2023-01-10T09:47:28;100262.52;;;5.16;96.25
41706;BME280;27385;51.096;17.190;2023-01-10T09:50:13;100266.15;;;5.19;96.13
41706;BME280;27385;51.096;17.190;2023-01-10T09:52:48;100264.18;;;5.21;96.04
41706;BME280;27385;51.096;17.190;2023-01-10T09:55:26;100272.64;;;5.24;96.19
41706;BME280;27385;51.096;17.190;2023-01-10T09:58:03;100272.42;;;5.26;96.02
41706;BME280;27385;51.096;17.190;2023-01-10T10:00:41;100280.10;;;5.28;95.88
41706;BME280;27385;51.096;17.190;2023-01-10T10:03:21;100286.77;;;5.30;96.01
41706;BME280;27385;51.096;17.190;2023-01-10T10:05:53;100291.73;;;5.33;95.85
41706;BME280;27385;51.096;17.190;2023-01-10T10:08:25;100296.10;;;5.37;96.03
41706;BME280;27385;51.096;17.190;2023-01-10T10:11:28;100299.47;;;5.41;95.65
41706;BME280;27385;51.096;17.190;2023-01-10T10:14:13;100300.31;;;5.44;95.49
41706;BME280;27385;51.096;17.190;2023-01-10T10:20:00;100303.37;;;5.48;95.81
41706;BME280;27385;51.096;17.190;2023-01-10T10:22:40;100302.54;;;5.49;96.27
41706;BME280;27385;51.096;17.190;2023-01-10T10:25:24;100309.91;;;5.51;96.19
41706;BME280;27385;51.096;17.190;2023-01-10T10:28:11;100309.48;;;5.53;96.22
41706;BME280;27385;51.096;17.190;2023-01-10T10:30:58;100310.64;;;5.56;96.33
41706;BME280;27385;51.096;17.190;2023-01-10T10:33:42;100314.98;;;5.58;96.49
41706;BME280;27385;51.096;17.190;2023-01-10T10:36:18;100311.44;;;5.63;96.50
41706;BME280;27385;51.096;17.190;2023-01-10T10:38:53;100320.05;;;5.66;96.21
41706;BME280;27385;51.096;17.190;2023-01-10T10:41:32;100320.47;;;5.67;96.16
41706;BME280;27385;51.096;17.190;2023-01-10T10:44:11;100317.81;;;5.69;96.13
41706;BME280;27385;51.096;17.190;2023-01-10T10:46:47;100316.98;;;5.72;96.35
41706;BME280;27385;51.096;17.190;2023-01-10T10:49:23;100318.36;;;5.77;96.54
41706;BME280;27385;51.096;17.190;2023-01-10T10:52:03;100322.38;;;5.80;96.24
41706;BME280;27385;51.096;17.190;2023-01-10T10:54:38;100320.09;;;5.82;96.18
41706;BME280;27385;51.096;17.190;2023-01-10T10:57:11;100321.08;;;5.84;96.00
41706;BME280;27385;51.096;17.190;2023-01-10T10:59:45;100326.03;;;5.85;95.75
41706;BME280;27385;51.096;17.190;2023-01-10T11:02:27;100322.37;;;5.86;95.76
41706;BME280;27385;51.096;17.190;2023-01-10T11:05:01;100319.42;;;5.86;95.97
41706;BME280;27385;51.096;17.190;2023-01-10T11:07:35;100315.61;;;5.87;96.02
41706;BME280;27385;51.096;17.190;2023-01-10T11:10:13;100318.42;;;5.88;95.85
41706;BME280;27385;51.096;17.190;2023-01-10T11:13:02;100319.54;;;5.91;95.81
41706;BME280;27385;51.096;17.190;2023-01-10T11:15:42;100320.22;;;5.91;95.67
41706;BME280;27385;51.096;17.190;2023-01-10T11:18:16;100324.39;;;5.92;95.56
41706;BME280;27385;51.096;17.190;2023-01-10T11:20:51;100327.70;;;5.93;95.54
41706;BME280;27385;51.096;17.190;2023-01-10T11:23:35;100331.44;;;5.95;95.62
41706;BME280;27385;51.096;17.190;2023-01-10T11:26:08;100329.63;;;5.95;95.33
41706;BME280;27385;51.096;17.190;2023-01-10T11:28:40;100330.90;;;5.96;95.51
41706;BME280;27385;51.096;17.190;2023-01-10T11:31:14;100330.14;;;5.98;95.38
41706;BME280;27385;51.096;17.190;2023-01-10T11:33:56;100331.81;;;5.98;95.38
41706;BME280;27385;51.096;17.190;2023-01-10T11:36:27;100340.80;;;5.99;95.27
41706;BME280;27385;51.096;17.190;2023-01-10T11:39:03;100344.10;;;5.99;95.27
41706;BME280;27385;51.096;17.190;2023-01-10T11:41:34;100342.81;;;6.00;95.37
41706;BME280;27385;51.096;17.190;2023-01-10T11:44:20;100343.81;;;6.01;95.65
41706;BME280;27385;51.096;17.190;2023-01-10T11:46:54;100347.85;;;6.03;95.45
41706;BME280;27385;51.096;17.190;2023-01-10T11:49:29;100348.20;;;6.05;95.34
41706;BME280;27385;51.096;17.190;2023-01-10T11:52:04;100348.92;;;6.06;95.22
41706;BME280;27385;51.096;17.190;2023-01-10T11:54:36;100351.96;;;6.08;95.30
41706;BME280;27385;51.096;17.190;2023-01-10T11:57:17;100352.23;;;6.10;95.00
41706;BME280;27385;51.096;17.190;2023-01-10T11:59:53;100355.27;;;6.11;95.16
41706;BME280;27385;51.096;17.190;2023-01-10T12:02:27;100362.89;;;6.13;95.29
41706;BME280;27385;51.096;17.190;2023-01-10T12:05:00;100372.31;;;6.16;95.39
41706;BME280;27385;51.096;17.190;2023-01-10T12:07:56;100376.53;;;6.17;94.97
41706;BME280;27385;51.096;17.190;2023-01-10T12:10:29;100379.17;;;6.19;95.31
41706;BME280;27385;51.096;17.190;2023-01-10T12:13:06;100378.14;;;6.22;95.31
41706;BME280;27385;51.096;17.190;2023-01-10T12:15:42;100378.14;;;6.23;95.21
41706;BME280;27385;51.096;17.190;2023-01-10T12:18:16;100377.17;;;6.24;94.99
41706;BME280;27385;51.096;17.190;2023-01-10T12:20:49;100378.30;;;6.26;94.91
41706;BME280;27385;51.096;17.190;2023-01-10T12:23:23;100382.63;;;6.27;94.72
41706;BME280;27385;51.096;17.190;2023-01-10T12:25:55;100387.30;;;6.29;94.86
41706;BME280;27385;51.096;17.190;2023-01-10T12:28:30;100390.74;;;6.31;94.58
41706;BME280;27385;51.096;17.190;2023-01-10T12:31:01;100397.61;;;6.31;94.31
41706;BME280;27385;51.096;17.190;2023-01-10T12:33:35;100396.69;;;6.31;94.50
41706;BME280;27385;51.096;17.190;2023-01-10T12:36:15;100394.55;;;6.30;94.60
41706;BME280;27385;51.096;17.190;2023-01-10T12:38:53;100397.16;;;6.33;94.97
41706;BME280;27385;51.096;17.190;2023-01-10T12:41:41;100400.20;;;6.34;94.65
41706;BME280;27385;51.096;17.190;2023-01-10T12:44:35;100404.75;;;6.33;94.60
41706;BME280;27385;51.096;17.190;2023-01-10T12:47:13;100409.08;;;6.34;94.54
41706;BME280;27385;51.096;17.190;2023-01-10T12:49:51;100407.98;;;6.34;94.55
41706;BME280;27385;51.096;17.190;2023-01-10T12:52:35;100414.30;;;6.32;94.17
41706;BME280;27385;51.096;17.190;2023-01-10T12:55:16;100415.41;;;6.30;94.21
41706;BME280;27385;51.096;17.190;2023-01-10T12:57:49;100423.56;;;6.30;94.60
41706;BME280;27385;51.096;17.190;2023-01-10T13:00:25;100432.59;;;6.30;94.39
41706;BME280;27385;51.096;17.190;2023-01-10T13:03:00;100439.21;;;6.31;94.29
41706;BME280;27385;51.096;17.190;2023-01-10T13:05:34;100448.34;;;6.33;93.89
41706;BME280;27385;51.096;17.190;2023-01-10T13:08:09;100448.83;;;6.32;93.67
41706;BME280;27385;51.096;17.190;2023-01-10T13:10:43;100444.59;;;6.31;93.61
41706;BME280;27385;51.096;17.190;2023-01-10T13:13:19;100436.30;;;6.30;93.83
41706;BME280;27385;51.096;17.190;2023-01-10T13:15:55;100437.25;;;6.30;93.90
41706;BME280;27385;51.096;17.190;2023-01-10T13:18:30;100439.05;;;6.31;94.24
41706;BME280;27385;51.096;17.190;2023-01-10T13:21:08;100445.27;;;6.34;94.23
41706;BME280;27385;51.096;17.190;2023-01-10T13:23:48;100449.87;;;6.34;93.88
41706;BME280;27385;51.096;17.190;2023-01-10T13:26:20;100450.52;;;6.34;93.86
41706;BME280;27385;51.096;17.190;2023-01-10T13:28:56;100455.35;;;6.34;93.89
41706;BME280;27385;51.096;17.190;2023-01-10T13:31:31;100463.02;;;6.32;93.75
41706;BME280;27385;51.096;17.190;2023-01-10T13:34:06;100472.41;;;6.28;93.40
41706;BME280;27385;51.096;17.190;2023-01-10T13:36:39;100470.45;;;6.22;93.42
41706;BME280;27385;51.096;17.190;2023-01-10T13:39:22;100484.34;;;6.17;93.48